createdAt,value
2024-05-09T00:00:42.635Z,92.5350
2024-05-09T00:01:43.811Z,92.4700
2024-05-09T00:02:44.679Z,92.5505
2024-05-09T00:03:46.072Z,92.1071
2024-05-09T00:04:47.088Z,91.8126
2024-05-09T00:05:47.792Z,91.7806
2024-05-09T00:06:48.457Z,91.7708
2024-05-09T00:07:49.009Z,91.7354
2024-05-09T00:08:49.670Z,91.8227
2024-05-09T00:09:51.355Z,91.9481
2024-05-09T00:10:52.078Z,92.0552
2024-05-09T00:11:52.775Z,92.1059
2024-05-09T00:12:53.258Z,92.2045
2024-05-09T00:13:53.969Z,92.2066
2024-05-09T00:14:54.490Z,92.0937
2024-05-09T00:15:56.359Z,92.0745
2024-05-09T00:16:57.170Z,92.1904
2024-05-09T00:17:57.997Z,92.3903
2024-05-09T00:18:58.936Z,92.2823
2024-05-09T00:19:59.703Z,92.2197
2024-05-09T00:21:00.594Z,92.2771
2024-05-09T00:22:01.483Z,92.2362
2024-05-09T00:23:02.221Z,92.2744
2024-05-09T00:24:03.478Z,92.3171
2024-05-09T00:25:04.194Z,92.4523
2024-05-09T00:26:04.877Z,92.5154
2024-05-09T00:27:05.775Z,92.4352
2024-05-09T00:28:09.055Z,92.5194
2024-05-09T00:29:10.055Z,92.5899
2024-05-09T00:30:14.509Z,92.5975
2024-05-09T00:31:18.346Z,92.5792
2024-05-09T00:32:19.480Z,92.7623
2024-05-09T00:33:20.855Z,92.8417
2024-05-09T00:34:22.148Z,92.7541
2024-05-09T00:35:23.623Z,92.8743
2024-05-09T00:36:24.765Z,93.0315
2024-05-09T00:37:25.841Z,93.1273
2024-05-09T00:38:26.989Z,93.0880
2024-05-09T00:39:28.163Z,93.0117
2024-05-09T00:40:35.766Z,93.0544
2024-05-09T00:41:36.639Z,93.1368
2024-05-09T00:42:38.805Z,93.1374
2024-05-09T00:43:40.062Z,93.2982
2024-05-09T00:44:41.318Z,93.5219
2024-05-09T00:45:42.607Z,93.5998
2024-05-09T00:46:43.905Z,93.5412
2024-05-09T00:47:45.201Z,93.4878
2024-05-09T00:48:46.552Z,93.5299
2024-05-09T00:49:47.664Z,93.5744
2024-05-09T00:50:48.854Z,93.5296
2024-05-09T00:51:49.824Z,93.5625
2024-05-09T00:52:50.892Z,93.5174
2024-05-09T00:53:51.856Z,93.5225
2024-05-09T00:54:52.736Z,93.5116
2024-05-09T00:55:53.581Z,93.4200
2024-05-09T00:56:54.258Z,93.2900
2024-05-09T00:57:55.082Z,93.1609
2024-05-09T00:58:55.841Z,93.1206
2024-05-09T00:59:56.906Z,93.0428
2024-05-09T01:00:57.508Z,93.0028
2024-05-09T01:01:58.295Z,92.8869
2024-05-09T01:02:59.132Z,92.9650
2024-05-09T01:03:59.834Z,92.8896
2024-05-09T01:05:00.562Z,92.8112
2024-05-09T01:06:01.178Z,92.8579
2024-05-09T01:07:01.811Z,92.8637
2024-05-09T01:08:02.453Z,92.7816
2024-05-09T01:09:03.026Z,92.7465
2024-05-09T01:10:05.578Z,92.6592
2024-05-09T01:11:07.881Z,92.3595
2024-05-09T01:12:08.606Z,92.5014
2024-05-09T01:13:09.158Z,92.4205
2024-05-09T01:14:09.616Z,92.2707
2024-05-09T01:15:10.028Z,92.2209
2024-05-09T01:16:10.431Z,92.0766
2024-05-09T01:17:10.867Z,92.1123
2024-05-09T01:18:12.408Z,92.0443
2024-05-09T01:19:14.390Z,92.0580
2024-05-09T01:20:20.216Z,92.0760
2024-05-09T01:21:21.526Z,91.9652
2024-05-09T01:22:21.816Z,91.9979
2024-05-09T01:23:22.131Z,91.9286
2024-05-09T01:24:22.517Z,91.8599
2024-05-09T01:25:22.818Z,91.8312
2024-05-09T01:26:23.053Z,91.8911
2024-05-09T01:27:23.596Z,91.8611
2024-05-09T01:28:23.847Z,91.7876
2024-05-09T01:29:24.233Z,91.8700
2024-05-09T01:30:31.836Z,91.8282
2024-05-09T01:31:31.165Z,91.6381
2024-05-09T01:32:31.627Z,91.7336
2024-05-09T01:33:33.273Z,91.6408
2024-05-09T01:34:33.960Z,91.6063
2024-05-09T01:35:34.286Z,91.6454
2024-05-09T01:36:34.682Z,91.5532
2024-05-09T01:37:34.833Z,91.6640
2024-05-09T01:38:35.263Z,91.8358
2024-05-09T01:39:35.730Z,91.5850
2024-05-09T01:40:38.930Z,91.3872
2024-05-09T01:41:40.860Z,91.3539
2024-05-09T01:42:41.076Z,91.3268
2024-05-09T01:43:41.887Z,91.2294
2024-05-09T01:44:42.136Z,91.3808
2024-05-09T01:45:42.415Z,91.3646
2024-05-09T01:46:42.698Z,91.3448
2024-05-09T01:47:43.159Z,91.4183
2024-05-09T01:48:44.558Z,91.3985
2024-05-09T01:49:44.989Z,91.3893
2024-05-09T01:50:45.494Z,91.2578
2024-05-09T01:51:46.023Z,91.2459
2024-05-09T01:52:46.277Z,91.3732
2024-05-09T01:53:46.505Z,91.3295
2024-05-09T01:54:46.697Z,91.3094
2024-05-09T01:55:46.979Z,91.2764
2024-05-09T01:56:47.337Z,91.5166
2024-05-09T01:57:47.599Z,91.3976
2024-05-09T01:58:47.781Z,91.4043
2024-05-09T01:59:48.008Z,91.4742
2024-05-09T02:00:48.319Z,91.3317
2024-05-09T02:01:56.632Z,91.4662
2024-05-09T02:02:54.946Z,91.2361
2024-05-09T02:03:55.412Z,91.2569
2024-05-09T02:04:56.158Z,91.3426
2024-05-09T02:05:56.517Z,91.5041
2024-05-09T02:06:57.132Z,91.5160
2024-05-09T02:07:57.392Z,91.4797
2024-05-09T02:08:57.546Z,91.3591
2024-05-09T02:09:58.110Z,91.4498
2024-05-09T02:10:58.532Z,91.3530
2024-05-09T02:11:59.086Z,91.4116
2024-05-09T02:12:59.334Z,91.6094
2024-05-09T02:13:59.700Z,91.4577
2024-05-09T02:14:59.934Z,91.3848
2024-05-09T02:16:00.217Z,91.3137
2024-05-09T02:17:00.556Z,91.5657
2024-05-09T02:18:01.121Z,91.4693
2024-05-09T02:19:01.739Z,91.4321
2024-05-09T02:20:02.115Z,91.4601
2024-05-09T02:21:02.720Z,91.4391
2024-05-09T02:22:02.950Z,91.3756
2024-05-09T02:23:03.305Z,91.2856
2024-05-09T02:24:03.627Z,91.2215
2024-05-09T02:25:03.841Z,91.2334
2024-05-09T02:26:04.497Z,91.2517
2024-05-09T02:27:04.741Z,91.3686
2024-05-09T02:28:05.080Z,91.0573
2024-05-09T02:29:05.393Z,91.1287
2024-05-09T02:30:15.150Z,91.2236
2024-05-09T02:31:13.510Z,91.2902
2024-05-09T02:32:14.104Z,91.3549
2024-05-09T02:33:15.002Z,91.2633
2024-05-09T02:34:16.310Z,91.3637
2024-05-09T02:35:16.604Z,91.4949
2024-05-09T02:36:16.771Z,91.4928
2024-05-09T02:37:16.937Z,91.4107
2024-05-09T02:38:18.221Z,91.3808
2024-05-09T02:39:18.438Z,91.3957
2024-05-09T02:40:25.665Z,91.3036
2024-05-09T02:41:25.977Z,91.4189
2024-05-09T02:42:27.204Z,91.4800
2024-05-09T02:43:27.464Z,91.3722
2024-05-09T02:44:27.763Z,91.5267
2024-05-09T02:45:28.065Z,91.5120
2024-05-09T02:46:28.287Z,91.6088
2024-05-09T02:47:28.808Z,91.4769
2024-05-09T02:48:29.149Z,91.5865
2024-05-09T02:49:29.573Z,91.7278
2024-05-09T02:50:37.036Z,91.6866
2024-05-09T02:51:36.306Z,91.6524
2024-05-09T02:52:36.596Z,91.8212
2024-05-09T02:53:36.903Z,91.7247
2024-05-09T02:54:37.241Z,91.7205
2024-05-09T02:55:37.533Z,91.7537
2024-05-09T02:56:37.991Z,91.7595
2024-05-09T02:57:38.413Z,91.7687
2024-05-09T02:58:38.795Z,91.6347
2024-05-09T02:59:39.078Z,91.7559
2024-05-09T03:00:41.666Z,91.9301
2024-05-09T03:01:45.743Z,91.8755
2024-05-09T03:02:46.164Z,91.7595
2024-05-09T03:03:46.559Z,91.8831
2024-05-09T03:04:47.024Z,91.8880
2024-05-09T03:05:47.495Z,91.8779
2024-05-09T03:06:47.945Z,91.9509
2024-05-09T03:07:48.124Z,92.1361
2024-05-09T03:08:48.420Z,92.1581
2024-05-09T03:09:48.606Z,92.0790
2024-05-09T03:10:49.097Z,92.2631
2024-05-09T03:11:49.510Z,92.2188
2024-05-09T03:12:49.814Z,92.1926
2024-05-09T03:13:50.024Z,92.2420
2024-05-09T03:14:50.297Z,92.2692
2024-05-09T03:15:50.722Z,92.2325
2024-05-09T03:16:51.066Z,92.2066
2024-05-09T03:17:51.696Z,92.3571
2024-05-09T03:18:52.075Z,92.1889
2024-05-09T03:19:52.413Z,92.1450
2024-05-09T03:20:52.766Z,92.0885
2024-05-09T03:21:52.943Z,92.0223
2024-05-09T03:22:56.323Z,92.2377
2024-05-09T03:23:57.513Z,92.2707
2024-05-09T03:24:57.731Z,92.2106
2024-05-09T03:25:58.057Z,92.0778
2024-05-09T03:26:58.441Z,92.0079
2024-05-09T03:27:58.686Z,92.0037
2024-05-09T03:28:58.969Z,91.8398
2024-05-09T03:29:59.157Z,91.7968
2024-05-09T03:30:59.321Z,91.9686
2024-05-09T03:31:59.732Z,92.0635
2024-05-09T03:33:00.341Z,91.9506
2024-05-09T03:34:00.827Z,91.8560
2024-05-09T03:35:01.087Z,91.7202
2024-05-09T03:36:01.249Z,91.7528
2024-05-09T03:37:01.531Z,91.7754
2024-05-09T03:38:01.777Z,91.8138
2024-05-09T03:39:02.097Z,91.8486
2024-05-09T03:40:02.875Z,91.8761
2024-05-09T03:41:03.271Z,91.7543
2024-05-09T03:42:03.612Z,91.7827
2024-05-09T03:43:03.830Z,91.8511
2024-05-09T03:44:04.083Z,91.7424
2024-05-09T03:45:04.328Z,91.9020
2024-05-09T03:46:04.515Z,91.9530
2024-05-09T03:47:04.785Z,91.8856
2024-05-09T03:48:05.522Z,91.9805
2024-05-09T03:49:05.893Z,91.7348
2024-05-09T03:50:11.962Z,91.7543
2024-05-09T03:51:12.509Z,91.9240
2024-05-09T03:52:12.809Z,91.9374
2024-05-09T03:53:13.184Z,91.9719
2024-05-09T03:54:13.528Z,91.9182
2024-05-09T03:55:13.725Z,91.9481
2024-05-09T03:56:14.020Z,92.0061
2024-05-09T03:57:14.213Z,91.9576
2024-05-09T03:58:14.564Z,91.9747
2024-05-09T03:59:14.896Z,92.0751
2024-05-09T04:00:21.950Z,92.0058
2024-05-09T04:01:21.414Z,92.1828
2024-05-09T04:02:21.811Z,92.1837
2024-05-09T04:03:22.565Z,92.1810
2024-05-09T04:04:22.959Z,92.1190
2024-05-09T04:05:23.192Z,92.1447
2024-05-09T04:06:23.418Z,92.0900
2024-05-09T04:07:23.631Z,91.9615
2024-05-09T04:08:23.901Z,92.0470
2024-05-09T04:09:24.166Z,92.0653
2024-05-09T04:10:31.181Z,91.8709
2024-05-09T04:11:30.467Z,91.7260
2024-05-09T04:12:30.844Z,91.6808
2024-05-09T04:13:31.020Z,91.8257
2024-05-09T04:14:31.319Z,91.8633
2024-05-09T04:15:31.866Z,91.9255
2024-05-09T04:16:32.344Z,91.9469
2024-05-09T04:17:33.006Z,91.8630
2024-05-09T04:18:33.451Z,91.5785
2024-05-09T04:19:33.722Z,91.4803
2024-05-09T04:20:39.007Z,91.5602
2024-05-09T04:21:40.760Z,91.7354
2024-05-09T04:22:52.957Z,91.7070
2024-05-09T04:23:53.162Z,91.6274
2024-05-09T04:24:53.295Z,91.4821
2024-05-09T04:26:05.285Z,91.5877
2024-05-09T04:27:05.389Z,91.5727
2024-05-09T04:28:17.367Z,91.4392
2024-05-09T04:29:17.494Z,91.4833
2024-05-09T04:30:26.221Z,91.4168
2024-05-09T04:31:24.540Z,91.5425
2024-05-09T04:32:25.467Z,91.5178
2024-05-09T04:33:25.802Z,91.4174
2024-05-09T04:34:26.121Z,91.4537
2024-05-09T04:35:26.372Z,91.5425
2024-05-09T04:36:26.568Z,91.5178
2024-05-09T04:37:26.670Z,91.1482
2024-05-09T04:38:26.672Z,91.0109
2024-05-09T04:39:26.817Z,91.1434
2024-05-09T04:40:33.396Z,91.3536
2024-05-09T04:41:34.028Z,91.3863
2024-05-09T04:42:34.175Z,91.4110
2024-05-09T04:43:34.337Z,91.4891
2024-05-09T04:44:34.607Z,91.4849
2024-05-09T04:45:35.072Z,91.3851
2024-05-09T04:46:35.479Z,91.1476
2024-05-09T04:47:35.861Z,91.3829
2024-05-09T04:48:36.221Z,91.2514
2024-05-09T04:49:37.504Z,91.1147
2024-05-09T04:50:39.307Z,91.0478
2024-05-09T04:51:40.356Z,91.2840
2024-05-09T04:52:40.510Z,91.1000
2024-05-09T04:53:40.936Z,91.0945
2024-05-09T04:54:41.258Z,91.2807
2024-05-09T04:55:41.438Z,91.1711
2024-05-09T04:56:41.562Z,91.2041
2024-05-09T04:57:41.754Z,91.1516
2024-05-09T04:58:42.128Z,91.1446
2024-05-09T04:59:42.284Z,91.1742
2024-05-09T05:00:42.613Z,91.2337
2024-05-09T05:01:42.779Z,91.1699
2024-05-09T05:02:43.229Z,91.2978
2024-05-09T05:03:43.596Z,91.2392
2024-05-09T05:04:43.985Z,91.1958
2024-05-09T05:05:45.441Z,91.1330
2024-05-09T05:06:46.348Z,91.2331
2024-05-09T05:07:46.504Z,91.2047
2024-05-09T05:08:46.718Z,91.1769
2024-05-09T05:09:46.847Z,91.1543
2024-05-09T05:10:47.710Z,91.3179
2024-05-09T05:11:48.619Z,91.2334
2024-05-09T05:12:48.763Z,91.2953
2024-05-09T05:13:48.852Z,91.5196
2024-05-09T05:14:49.511Z,91.3707
2024-05-09T05:15:50.536Z,91.2413
2024-05-09T05:16:50.568Z,91.2831
2024-05-09T05:18:02.753Z,91.2782
2024-05-09T05:19:02.946Z,91.3658
2024-05-09T05:20:04.707Z,91.2538
2024-05-09T05:21:05.032Z,91.3137
2024-05-09T05:22:05.129Z,91.2297
2024-05-09T05:23:05.205Z,91.1485
2024-05-09T05:24:05.285Z,91.2981
2024-05-09T05:25:05.361Z,91.2660
2024-05-09T05:26:17.309Z,91.2523
2024-05-09T05:27:17.330Z,91.1406
2024-05-09T05:28:29.270Z,91.0862
2024-05-09T05:29:29.398Z,91.1330
2024-05-09T05:30:34.443Z,91.1275
2024-05-09T05:31:36.467Z,91.2749
2024-05-09T05:32:36.583Z,91.3103
2024-05-09T05:33:36.944Z,91.1540
2024-05-09T05:34:37.044Z,91.0610
2024-05-09T05:35:37.196Z,91.2450
2024-05-09T05:36:37.299Z,91.3500
2024-05-09T05:37:37.374Z,91.3600
2024-05-09T05:38:37.523Z,91.3433
2024-05-09T05:39:37.532Z,91.4391
2024-05-09T05:40:38.764Z,91.4702
2024-05-09T05:41:40.077Z,91.2615
2024-05-09T05:42:40.131Z,91.2584
2024-05-09T05:43:40.315Z,91.0372
2024-05-09T05:44:40.452Z,90.9340
2024-05-09T05:45:40.562Z,90.9770
2024-05-09T05:46:41.659Z,91.1073
2024-05-09T05:47:42.139Z,90.9764
2024-05-09T05:48:42.495Z,90.9523
2024-05-09T05:49:42.683Z,90.9511
2024-05-09T05:50:42.855Z,91.0042
2024-05-09T05:51:43.176Z,90.9859
2024-05-09T05:52:43.440Z,91.0335
2024-05-09T05:53:43.555Z,91.0283
2024-05-09T05:54:43.705Z,91.0884
2024-05-09T05:55:43.890Z,91.2050
2024-05-09T05:56:44.141Z,91.2340
2024-05-09T05:57:44.367Z,90.9996
2024-05-09T05:58:44.575Z,91.1302
2024-05-09T05:59:44.800Z,91.0741
2024-05-09T06:00:45.044Z,90.9487
2024-05-09T06:01:45.472Z,90.9996
2024-05-09T06:02:45.868Z,91.1873
2024-05-09T06:03:47.335Z,91.3252
2024-05-09T06:04:47.646Z,91.2227
2024-05-09T06:05:47.866Z,91.2743
2024-05-09T06:06:48.115Z,91.1913
2024-05-09T06:07:49.287Z,91.2590
2024-05-09T06:08:49.388Z,91.2288
2024-05-09T06:09:50.652Z,91.0671
2024-05-09T06:10:50.805Z,91.0964
2024-05-09T06:11:52.151Z,90.8617
2024-05-09T06:12:52.130Z,90.8907
2024-05-09T06:13:52.236Z,90.7823
2024-05-09T06:14:52.407Z,90.6038
2024-05-09T06:15:52.454Z,90.8342
2024-05-09T06:16:54.102Z,90.9651
2024-05-09T06:17:55.752Z,90.7655
2024-05-09T06:18:56.567Z,90.7408
2024-05-09T06:19:56.615Z,90.8129
2024-05-09T06:20:56.851Z,90.4280
2024-05-09T06:21:56.919Z,90.2541
2024-05-09T06:22:56.926Z,89.9901
2024-05-09T06:23:56.984Z,89.8381
2024-05-09T06:25:08.814Z,89.6981
2024-05-09T06:26:20.716Z,89.4965
2024-05-09T06:27:32.577Z,89.4931
2024-05-09T06:28:32.560Z,89.4063
2024-05-09T06:29:44.384Z,89.2070
2024-05-09T06:30:44.341Z,89.0095
2024-05-09T06:31:59.495Z,88.8065
2024-05-09T06:33:00.366Z,88.4483
2024-05-09T06:34:12.536Z,88.3408
2024-05-09T06:35:12.602Z,88.3619
2024-05-09T06:36:13.521Z,88.6369
2024-05-09T06:37:25.362Z,87.9922
2024-05-09T06:38:37.268Z,87.9914
2024-05-09T06:39:37.183Z,87.5041
2024-05-09T06:40:49.034Z,87.0166
2024-05-09T06:42:00.823Z,87.4482
2024-05-09T06:43:12.682Z,87.5087
2024-05-09T06:44:12.695Z,87.1708
2024-05-09T06:45:12.716Z,87.4629
2024-05-09T06:46:24.525Z,87.1468
2024-05-09T06:47:36.534Z,86.7397
2024-05-09T06:48:36.767Z,86.9038
2024-05-09T06:49:36.815Z,86.9020
2024-05-09T06:50:38.347Z,86.6862
2024-05-09T06:51:39.594Z,86.5672
2024-05-09T06:52:41.517Z,86.2962
2024-05-09T06:53:41.486Z,86.6392
2024-05-09T06:54:41.577Z,86.0987
2024-05-09T06:55:41.428Z,85.9855
2024-05-09T06:56:53.211Z,85.9304
2024-05-09T06:58:04.938Z,86.1852
2024-05-09T06:59:16.743Z,86.2104
2024-05-09T07:00:35.599Z,86.1987
2024-05-09T07:01:35.287Z,85.7359
2024-05-09T07:02:47.066Z,86.0657
2024-05-09T07:03:47.135Z,86.7924
2024-05-09T07:04:47.241Z,86.7124
2024-05-09T07:05:48.569Z,86.3816
2024-05-09T07:06:50.937Z,86.2974
2024-05-09T07:07:50.923Z,85.5497
2024-05-09T07:08:52.448Z,85.4719
2024-05-09T07:09:52.626Z,85.4426
2024-05-09T07:10:52.784Z,85.6239
2024-05-09T07:11:52.984Z,85.9666
2024-05-09T07:12:53.234Z,85.6220
2024-05-09T07:13:53.207Z,85.4463
2024-05-09T07:14:53.583Z,85.5235
2024-05-09T07:15:53.516Z,85.6812
2024-05-09T07:17:05.404Z,85.6629
2024-05-09T07:18:05.497Z,85.5439
2024-05-09T07:19:05.686Z,85.7060
2024-05-09T07:20:08.963Z,85.8143
2024-05-09T07:21:09.366Z,85.7719
2024-05-09T07:22:21.156Z,85.8775
2024-05-09T07:23:32.905Z,86.1903
2024-05-09T07:24:44.778Z,85.4541
2024-05-09T07:25:56.587Z,85.7867
2024-05-09T07:27:08.266Z,85.7298
2024-05-09T07:28:19.960Z,85.7806
2024-05-09T07:29:32.989Z,85.2084
2024-05-09T07:30:35.171Z,84.9870
2024-05-09T07:31:35.215Z,84.6073
2024-05-09T07:32:47.096Z,84.6845
2024-05-09T07:33:47.148Z,84.7956
2024-05-09T07:34:47.192Z,84.9033
2024-05-09T07:35:58.933Z,84.6331
2024-05-09T07:37:10.643Z,84.0818
2024-05-09T07:38:22.512Z,84.1515
2024-05-09T07:39:22.670Z,84.6033
2024-05-09T07:40:36.644Z,84.5607
2024-05-09T07:41:37.486Z,84.6241
2024-05-09T07:42:37.541Z,84.7285
2024-05-09T07:43:50.276Z,85.2697
2024-05-09T07:44:51.277Z,85.0068
2024-05-09T07:46:48.234Z,84.9971
2024-05-09T07:48:14.696Z,84.6622
2024-05-09T07:49:45.087Z,84.5066
2024-05-09T07:53:08.679Z,83.7781
2024-05-09T07:53:33.658Z,83.7861
2024-05-09T07:53:47.320Z,83.7647
2024-05-09T07:54:49.818Z,84.1367
2024-05-09T07:55:51.072Z,84.4749
2024-05-09T07:56:51.221Z,83.5904
2024-05-09T07:57:51.609Z,83.7733
2024-05-09T07:58:52.172Z,84.0775
2024-05-09T07:59:52.294Z,84.1321
2024-05-09T08:00:52.379Z,84.5878
2024-05-09T08:01:52.464Z,83.5264
2024-05-09T08:02:52.730Z,82.9163
2024-05-09T08:03:53.090Z,82.9892
2024-05-09T08:04:53.295Z,82.7683
2024-05-09T08:05:54.453Z,82.4659
2024-05-09T08:06:54.568Z,82.2574
2024-05-09T08:07:55.583Z,82.4347
2024-05-09T08:09:11.116Z,81.9999
2024-05-09T08:10:15.471Z,82.5223
2024-05-09T08:11:18.933Z,82.7225
2024-05-09T08:12:30.847Z,81.9061
2024-05-09T08:13:42.585Z,81.2464
2024-05-09T08:14:56.198Z,81.8491
2024-05-09T08:16:07.972Z,81.4504
2024-05-09T08:17:19.800Z,81.5615
2024-05-09T08:18:31.883Z,80.9509
2024-05-09T08:19:32.006Z,81.4246
2024-05-09T08:20:43.727Z,81.8507
2024-05-09T08:21:55.540Z,81.3636
2024-05-09T08:23:07.336Z,82.0322
2024-05-09T08:24:19.128Z,82.6813
2024-05-09T08:25:30.916Z,82.3181
2024-05-09T08:26:42.682Z,82.2581
2024-05-09T08:27:54.452Z,82.3972
2024-05-09T08:28:54.505Z,82.7884
2024-05-09T08:31:17.970Z,82.2443
2024-05-09T08:32:29.938Z,82.5739
2024-05-09T08:33:31.236Z,83.0625
2024-05-09T08:34:31.216Z,83.1888
2024-05-09T08:35:31.293Z,83.0539
2024-05-09T08:36:43.163Z,82.8094
2024-05-09T08:37:43.278Z,82.7271
2024-05-09T08:38:43.386Z,82.9731
2024-05-09T08:39:43.369Z,82.9209
2024-05-09T08:40:43.433Z,82.7808
2024-05-09T08:41:44.359Z,82.9236
2024-05-09T08:42:56.166Z,82.9735
2024-05-09T08:44:07.884Z,82.6040
2024-05-09T08:45:19.617Z,82.8400
2024-05-09T08:46:31.361Z,82.4717
2024-05-09T08:47:31.787Z,81.7813
2024-05-09T08:48:33.095Z,81.7975
2024-05-09T08:49:33.263Z,81.6254
2024-05-09T08:50:38.535Z,80.5548
2024-05-09T08:51:41.058Z,80.6274
2024-05-09T08:52:41.093Z,80.6842
2024-05-09T08:53:41.052Z,80.9751
2024-05-09T08:54:52.846Z,80.8560
2024-05-09T08:56:04.670Z,80.8082
2024-05-09T08:57:16.523Z,80.0905
2024-05-09T08:58:16.797Z,80.1086
2024-05-09T08:59:16.831Z,80.5737
2024-05-09T09:00:35.948Z,80.6940
2024-05-09T09:01:34.398Z,81.2763
2024-05-09T09:02:34.694Z,80.8084
2024-05-09T09:03:34.815Z,79.7156
2024-05-09T09:04:34.955Z,79.2065
2024-05-09T09:05:46.750Z,79.6038
2024-05-09T09:06:59.767Z,80.1999
2024-05-09T09:08:00.294Z,80.4059
2024-05-09T09:09:12.302Z,80.3744
2024-05-09T09:10:29.884Z,80.9850
2024-05-09T09:11:31.614Z,80.3351
2024-05-09T09:12:31.620Z,80.9595
2024-05-09T09:13:43.437Z,81.3135
2024-05-09T09:14:55.183Z,80.7642
2024-05-09T09:16:07.045Z,80.6338
2024-05-09T09:17:07.003Z,80.8722
2024-05-09T09:18:19.272Z,80.2162
2024-05-09T09:19:19.432Z,80.0836
2024-05-09T09:20:26.269Z,80.0571
2024-05-09T09:21:25.286Z,80.1990
2024-05-09T09:22:38.094Z,80.0788
2024-05-09T09:23:38.037Z,79.5257
2024-05-09T09:24:49.895Z,80.1091
2024-05-09T09:26:01.751Z,79.7462
2024-05-09T09:27:13.606Z,79.6935
2024-05-09T09:28:25.427Z,79.8388
2024-05-09T09:29:37.211Z,79.6198
2024-05-09T09:30:48.973Z,79.6791
2024-05-09T09:32:00.701Z,78.8027
2024-05-09T09:33:12.550Z,78.5595
2024-05-09T09:34:24.642Z,78.9367
2024-05-09T09:35:24.556Z,78.5357
2024-05-09T09:36:36.292Z,78.6521
2024-05-09T09:37:47.984Z,78.5537
2024-05-09T09:38:59.758Z,78.4754
2024-05-09T09:40:13.311Z,78.6048
2024-05-09T09:41:13.609Z,78.7659
2024-05-09T09:42:25.299Z,79.0951
2024-05-09T09:43:37.110Z,79.3423
2024-05-09T09:44:57.794Z,79.1880
2024-05-09T09:45:54.712Z,79.2813
2024-05-09T09:47:07.120Z,79.1282
2024-05-09T09:48:07.036Z,78.1418
2024-05-09T09:49:19.826Z,78.3892
2024-05-09T09:50:34.572Z,78.8037
2024-05-09T09:51:35.447Z,78.5699
2024-05-09T09:52:35.395Z,78.1552
2024-05-09T09:53:47.208Z,77.8726
2024-05-09T09:54:58.994Z,77.6135
2024-05-09T09:55:58.975Z,77.2451
2024-05-09T09:57:10.636Z,77.6570
2024-05-09T09:58:22.395Z,76.2066
2024-05-09T09:59:34.177Z,75.3778
2024-05-09T10:00:46.328Z,75.5774
2024-05-09T10:01:46.338Z,75.4287
2024-05-09T10:02:58.084Z,75.8017
2024-05-09T10:04:09.812Z,74.6001
2024-05-09T10:05:21.754Z,74.4711
2024-05-09T10:06:21.670Z,73.5607
2024-05-09T10:07:22.508Z,73.9281
2024-05-09T10:08:34.164Z,72.5251
2024-05-09T10:09:45.895Z,72.3283
2024-05-09T10:10:58.668Z,72.7845
2024-05-09T10:12:10.402Z,71.5925
2024-05-09T10:13:22.054Z,71.6828
2024-05-09T10:14:33.702Z,72.1597
2024-05-09T10:15:34.580Z,72.1175
2024-05-09T10:16:46.198Z,72.8626
2024-05-09T10:17:57.908Z,72.1327
2024-05-09T10:19:09.671Z,73.0935
2024-05-09T10:20:27.715Z,72.8308
2024-05-09T10:21:27.923Z,71.4861
2024-05-09T10:22:39.529Z,72.0526
2024-05-09T10:23:51.209Z,72.2611
2024-05-09T10:25:04.821Z,71.7596
2024-05-09T10:26:05.922Z,71.8566
2024-05-09T10:27:06.127Z,71.3652
2024-05-09T10:28:17.788Z,71.0417
2024-05-09T10:29:18.797Z,70.9670
2024-05-09T10:30:35.801Z,70.9867
2024-05-09T10:31:36.246Z,71.0771
2024-05-09T10:32:47.959Z,70.2157
2024-05-09T10:33:59.995Z,70.7708
2024-05-09T10:35:00.082Z,69.7789
2024-05-09T10:36:00.009Z,69.9626
2024-05-09T10:37:11.623Z,69.7177
2024-05-09T10:38:23.202Z,70.8548
2024-05-09T10:39:34.940Z,69.9125
2024-05-09T10:40:46.526Z,69.5478
2024-05-09T10:41:58.189Z,69.8530
2024-05-09T10:43:09.838Z,70.9669
2024-05-09T10:44:21.359Z,70.9255
2024-05-09T10:45:32.957Z,70.7965
2024-05-09T10:46:44.553Z,71.0938
2024-05-09T10:47:56.377Z,71.3163
2024-05-09T10:49:08.186Z,72.4575
2024-05-09T10:50:25.552Z,72.0432
2024-05-09T10:51:25.773Z,73.3492
2024-05-09T10:52:37.352Z,73.1291
2024-05-09T10:53:48.954Z,73.3163
2024-05-09T10:55:01.694Z,72.7667
2024-05-09T10:56:04.041Z,71.9075
2024-05-09T10:57:15.591Z,71.5412
2024-05-09T10:58:27.238Z,71.1251
2024-05-09T10:59:38.950Z,70.9819
2024-05-09T11:00:50.582Z,70.9534
2024-05-09T11:02:02.415Z,70.7815
2024-05-09T11:03:14.043Z,70.0402
2024-05-09T11:04:25.714Z,69.9011
2024-05-09T11:05:37.563Z,70.4697
2024-05-09T11:06:37.498Z,69.6825
2024-05-09T11:07:37.447Z,70.0157
2024-05-09T11:08:49.055Z,69.4390
2024-05-09T11:10:00.801Z,69.5860
2024-05-09T11:11:12.463Z,67.9301
2024-05-09T11:12:24.987Z,67.9123
2024-05-09T11:13:24.984Z,68.3720
2024-05-09T11:14:36.570Z,67.2424
2024-05-09T11:15:48.213Z,68.4492
2024-05-09T11:16:59.970Z,67.9548
2024-05-09T11:18:11.792Z,67.5072
2024-05-09T11:19:11.787Z,67.7244
2024-05-09T11:20:29.444Z,67.3932
2024-05-09T11:21:29.312Z,67.3561
2024-05-09T11:22:41.627Z,67.5499
2024-05-09T11:23:41.834Z,66.0746
2024-05-09T11:24:41.703Z,65.8427
2024-05-09T11:25:53.390Z,64.7715
2024-05-09T11:27:05.031Z,64.7822
2024-05-09T11:28:16.833Z,64.7031
2024-05-09T11:29:19.236Z,64.7678
2024-05-09T11:30:26.559Z,64.4611
2024-05-09T11:31:25.450Z,64.7227
2024-05-09T11:32:25.528Z,65.1765
2024-05-09T11:33:25.492Z,66.4305
2024-05-09T11:34:37.095Z,66.4050
2024-05-09T11:35:48.713Z,66.0375
2024-05-09T11:37:00.433Z,66.2745
2024-05-09T11:38:12.088Z,67.0581
2024-05-09T11:39:23.907Z,68.0385
2024-05-09T11:40:25.998Z,67.2441
2024-05-09T11:41:29.323Z,67.0793
2024-05-09T11:42:40.873Z,67.1008
2024-05-09T11:43:52.617Z,67.1232
2024-05-09T11:45:04.147Z,67.8258
2024-05-09T11:46:15.903Z,65.7913
2024-05-09T11:47:27.588Z,65.6827
2024-05-09T11:48:39.380Z,66.5573
2024-05-09T11:49:39.416Z,65.8643
2024-05-09T11:50:51.064Z,66.9042
2024-05-09T11:52:02.710Z,67.0952
2024-05-09T11:53:14.265Z,66.6860
2024-05-09T11:54:25.821Z,66.9190
2024-05-09T11:55:37.334Z,67.8083
2024-05-09T11:56:48.986Z,68.3363
2024-05-09T11:58:00.611Z,68.3347
2024-05-09T11:59:12.271Z,68.7556
2024-05-09T12:00:33.564Z,69.5646
2024-05-09T12:01:29.938Z,68.9567
2024-05-09T12:02:29.909Z,68.9763
2024-05-09T12:03:41.682Z,69.1646
2024-05-09T12:04:53.424Z,69.5481
2024-05-09T12:05:53.325Z,69.6947
2024-05-09T12:07:05.043Z,68.7910
2024-05-09T12:08:16.684Z,68.8192
2024-05-09T12:09:28.395Z,69.1707
2024-05-09T12:10:40.127Z,67.8920
2024-05-09T12:11:51.919Z,68.0832
2024-05-09T12:13:05.549Z,67.5667
2024-05-09T12:14:06.909Z,66.6770
2024-05-09T12:15:18.578Z,66.2664
2024-05-09T12:16:30.337Z,67.2613
2024-05-09T12:17:31.228Z,67.0564
2024-05-09T12:18:31.178Z,65.6925
2024-05-09T12:19:42.831Z,66.3389
2024-05-09T12:20:54.622Z,67.3523
2024-05-09T12:22:06.286Z,67.4362
2024-05-09T12:23:17.883Z,65.6301
2024-05-09T12:24:29.508Z,66.0558
2024-05-09T12:25:41.237Z,66.2954
2024-05-09T12:26:52.945Z,65.4940
2024-05-09T12:28:04.647Z,65.6209
2024-05-09T12:29:16.280Z,64.8468
2024-05-09T12:30:35.760Z,65.5388
2024-05-09T12:31:34.349Z,64.8545
2024-05-09T12:32:46.531Z,65.3137
2024-05-09T12:33:46.541Z,64.7880
2024-05-09T12:34:46.427Z,63.9731
2024-05-09T12:35:58.158Z,63.8234
2024-05-09T12:37:10.176Z,62.5099
2024-05-09T12:38:10.127Z,61.4636
2024-05-09T12:39:21.784Z,61.9928
2024-05-09T12:40:36.971Z,62.8723
2024-05-09T12:41:39.271Z,63.0033
2024-05-09T12:42:40.002Z,62.9783
2024-05-09T12:43:51.569Z,62.8021
2024-05-09T12:45:03.199Z,63.8717
2024-05-09T12:46:14.923Z,63.0058
2024-05-09T12:47:15.192Z,63.4031
2024-05-09T12:48:27.156Z,63.2624
2024-05-09T12:49:27.164Z,62.6178
2024-05-09T12:50:32.214Z,62.5385
2024-05-09T12:51:33.327Z,62.2229
2024-05-09T12:52:45.096Z,61.8649
2024-05-09T12:53:45.942Z,61.4905
2024-05-09T12:54:57.703Z,61.6940
2024-05-09T12:56:01.843Z,61.5076
2024-05-09T12:57:03.485Z,61.9669
2024-05-09T12:58:15.485Z,62.0172